createdAt,value
2022-11-17T00:00:32.916Z,10.35
2022-11-17T00:02:59.614Z,10.37
2022-11-17T00:05:26.350Z,10.38
2022-11-17T00:07:53.132Z,10.42
2022-11-17T00:10:19.987Z,10.43
2022-11-17T00:13:05.517Z,10.45
2022-11-17T00:15:32.721Z,10.51
2022-11-17T00:18:18.025Z,10.53
2022-11-17T00:21:03.084Z,10.55
2022-11-17T00:23:48.307Z,10.55
2022-11-17T00:26:17.059Z,10.58
2022-11-17T00:28:43.892Z,10.61
2022-11-17T00:31:33.401Z,10.60
2022-11-17T00:34:06.636Z,10.59
2022-11-17T00:36:44.371Z,10.56
2022-11-17T00:39:13.188Z,10.53
2022-11-17T00:41:40.497Z,10.49
2022-11-17T00:44:07.985Z,10.42
2022-11-17T00:46:35.950Z,10.39
2022-11-17T00:49:03.048Z,10.38
2022-11-17T00:51:30.256Z,10.36
2022-11-17T00:53:57.166Z,10.38
2022-11-17T00:56:25.441Z,10.42
2022-11-17T00:58:52.920Z,10.44
2022-11-17T01:01:20.534Z,10.45
2022-11-17T01:03:47.727Z,10.46
2022-11-17T01:06:19.383Z,10.48
2022-11-17T01:08:47.002Z,10.45
2022-11-17T01:11:16.768Z,10.45
2022-11-17T01:13:45.649Z,10.43
2022-11-17T01:16:15.091Z,10.39
2022-11-17T01:18:43.212Z,10.35
2022-11-17T01:21:15.466Z,10.29
2022-11-17T01:23:43.716Z,10.28
2022-11-17T01:26:13.222Z,10.28
2022-11-17T01:28:41.255Z,10.23
2022-11-17T01:31:20.389Z,10.20
2022-11-17T01:33:47.944Z,10.15
2022-11-17T01:36:17.379Z,10.14
2022-11-17T01:38:44.675Z,10.07
2022-11-17T01:41:23.566Z,10.05
2022-11-17T01:43:58.901Z,10.00
2022-11-17T01:46:32.922Z,9.98
2022-11-17T01:49:18.241Z,9.95
2022-11-17T01:52:02.725Z,9.95
2022-11-17T01:54:32.534Z,9.96
2022-11-17T01:57:05.911Z,9.92
2022-11-17T01:59:43.492Z,9.90
2022-11-17T02:02:10.329Z,9.88
2022-11-17T02:04:47.513Z,9.88
2022-11-17T02:07:24.535Z,9.90
2022-11-17T02:09:53.740Z,9.88
2022-11-17T02:12:23.558Z,9.87
2022-11-17T02:14:50.915Z,9.85
2022-11-17T02:17:18.452Z,9.92
2022-11-17T02:19:56.068Z,9.90
2022-11-17T02:22:53.772Z,9.90
2022-11-17T02:26:16.719Z,9.89
2022-11-17T02:29:06.135Z,9.87
2022-11-17T02:32:07.484Z,9.88
2022-11-17T02:34:54.788Z,9.85
2022-11-17T02:37:31.566Z,9.84
2022-11-17T02:40:16.204Z,9.84
2022-11-17T02:43:06.215Z,9.86
2022-11-17T02:45:39.885Z,9.92
2022-11-17T02:48:14.048Z,9.94
2022-11-17T02:50:44.610Z,9.98
2022-11-17T02:53:12.551Z,10.02
2022-11-17T02:55:40.221Z,10.02
2022-11-17T02:58:12.132Z,10.03
2022-11-17T03:01:01.585Z,10.06
2022-11-17T03:03:45.601Z,10.10
2022-11-17T03:06:35.956Z,10.15
2022-11-17T03:09:44.692Z,10.24
2022-11-17T03:12:38.583Z,10.15
2022-11-17T03:15:30.388Z,10.06
2022-11-17T03:18:29.336Z,9.97
2022-11-17T03:21:12.523Z,9.93
2022-11-17T03:24:07.377Z,9.89
2022-11-17T03:26:38.611Z,9.90
2022-11-17T03:29:09.340Z,9.90
2022-11-17T03:31:38.482Z,9.87
2022-11-17T03:34:09.126Z,9.84
2022-11-17T03:36:42.002Z,9.84
2022-11-17T03:39:16.280Z,9.87
2022-11-17T03:41:47.093Z,9.92
2022-11-17T03:44:17.594Z,9.93
2022-11-17T03:46:48.386Z,9.93
2022-11-17T03:49:27.484Z,9.99
2022-11-17T03:51:54.523Z,9.98
2022-11-17T03:54:21.283Z,10.00
2022-11-17T03:56:58.479Z,10.00
2022-11-17T03:59:36.324Z,10.02
2022-11-17T04:02:03.212Z,10.00
2022-11-17T04:04:49.941Z,9.97
2022-11-17T04:07:16.664Z,10.00
2022-11-17T04:09:43.370Z,10.03
2022-11-17T04:12:28.764Z,10.05
2022-11-17T04:15:14.119Z,10.05
2022-11-17T04:17:40.898Z,10.08
2022-11-17T04:20:08.541Z,10.09
2022-11-17T04:22:35.403Z,10.07
2022-11-17T04:25:02.194Z,10.10
2022-11-17T04:27:49.207Z,10.14
2022-11-17T04:30:15.941Z,10.14
2022-11-17T04:32:42.703Z,10.09
2022-11-17T04:35:09.381Z,10.04
2022-11-17T04:37:36.101Z,10.03
2022-11-17T04:40:03.236Z,10.00
2022-11-17T04:42:30.050Z,10.01
2022-11-17T04:44:56.804Z,9.98
2022-11-17T04:47:23.523Z,9.96
2022-11-17T04:49:50.212Z,9.90
2022-11-17T04:52:16.928Z,9.87
2022-11-17T04:54:43.655Z,9.89
2022-11-17T04:57:10.381Z,9.91
2022-11-17T04:59:37.146Z,9.89
2022-11-17T05:02:06.185Z,9.88
2022-11-17T05:04:51.907Z,9.83
2022-11-17T05:07:18.789Z,9.77
2022-11-17T05:09:45.610Z,9.72
2022-11-17T05:12:30.942Z,9.74
2022-11-17T05:14:57.692Z,9.75
2022-11-17T05:17:24.399Z,9.74
2022-11-17T05:19:51.159Z,9.75
2022-11-17T05:22:39.861Z,9.74
2022-11-17T05:25:07.248Z,9.74
2022-11-17T05:27:35.928Z,9.74
2022-11-17T05:30:07.631Z,9.72
2022-11-17T05:32:34.389Z,9.73
2022-11-17T05:35:01.154Z,9.77
2022-11-17T05:37:28.104Z,9.78
2022-11-17T05:39:54.849Z,9.78
2022-11-17T05:42:21.776Z,9.81
2022-11-17T05:44:48.852Z,9.78
2022-11-17T05:47:16.088Z,9.83
2022-11-17T05:49:42.893Z,9.87
2022-11-17T05:52:09.692Z,9.92
2022-11-17T05:54:36.488Z,9.94
2022-11-17T05:57:08.365Z,9.96
2022-11-17T05:59:46.883Z,9.96
2022-11-17T06:02:18.742Z,10.00
2022-11-17T06:04:46.334Z,10.05
2022-11-17T06:07:14.228Z,10.13
2022-11-17T06:09:42.088Z,10.13
2022-11-17T06:12:09.067Z,10.11
2022-11-17T06:14:37.526Z,10.10
2022-11-17T06:17:22.175Z,10.07
2022-11-17T06:19:54.980Z,10.07
2022-11-17T06:22:21.873Z,10.07
2022-11-17T06:24:48.718Z,10.07
2022-11-17T06:27:17.086Z,10.09
2022-11-17T06:29:45.302Z,10.09
2022-11-17T06:32:17.316Z,10.08
2022-11-17T06:34:53.641Z,10.08
2022-11-17T06:37:22.299Z,10.07
2022-11-17T06:39:49.000Z,10.06
2022-11-17T06:42:15.727Z,10.05
2022-11-17T06:44:42.466Z,10.01
2022-11-17T06:47:09.276Z,10.05
2022-11-17T06:49:36.049Z,10.03
2022-11-17T06:52:02.840Z,10.00
2022-11-17T06:54:29.663Z,9.96
2022-11-17T06:56:56.894Z,9.92
2022-11-17T06:59:23.672Z,9.94
2022-11-17T07:01:50.407Z,9.94
2022-11-17T07:04:17.211Z,9.95
2022-11-17T07:06:43.978Z,9.92
2022-11-17T07:09:12.041Z,9.94
2022-11-17T07:11:38.794Z,9.94
2022-11-17T07:14:05.543Z,9.95
2022-11-17T07:16:32.593Z,9.94
2022-11-17T07:18:59.701Z,9.92
2022-11-17T07:21:26.583Z,9.92
2022-11-17T07:23:53.464Z,9.93
2022-11-17T07:26:20.300Z,9.97
2022-11-17T07:28:47.099Z,9.98
2022-11-17T07:31:13.856Z,10.05
2022-11-17T07:33:40.608Z,10.10
2022-11-17T07:36:10.347Z,10.18
2022-11-17T07:38:39.291Z,10.26
2022-11-17T07:41:07.965Z,10.25
2022-11-17T07:43:34.925Z,10.31
2022-11-17T07:46:05.678Z,10.38
2022-11-17T07:48:33.106Z,10.42
2022-11-17T07:51:01.117Z,10.44
2022-11-17T07:53:28.797Z,10.49
2022-11-17T07:55:56.028Z,10.52
2022-11-17T07:58:25.334Z,10.58
2022-11-17T08:00:52.262Z,10.65
2022-11-17T08:03:19.155Z,10.73
2022-11-17T08:05:45.927Z,10.75
2022-11-17T08:08:13.530Z,10.93
2022-11-17T08:10:41.169Z,11.06
2022-11-17T08:13:08.047Z,11.20
2022-11-17T08:15:36.199Z,11.28
2022-11-17T08:18:03.291Z,11.42
2022-11-17T08:20:30.354Z,11.39
2022-11-17T08:22:57.577Z,11.31
2022-11-17T08:25:26.270Z,11.39
2022-11-17T08:27:55.373Z,11.59
2022-11-17T08:30:22.565Z,11.70
2022-11-17T08:32:53.734Z,11.73
2022-11-17T08:35:23.116Z,11.68
2022-11-17T08:37:50.265Z,11.72
2022-11-17T08:40:20.488Z,11.83
2022-11-17T08:42:57.534Z,11.90
2022-11-17T08:45:27.264Z,11.96
2022-11-17T08:47:56.245Z,12.07
2022-11-17T08:50:23.077Z,12.22
2022-11-17T08:52:53.581Z,12.27
2022-11-17T08:55:20.372Z,12.39
2022-11-17T08:57:47.289Z,12.46
2022-11-17T09:00:14.648Z,12.47
2022-11-17T09:02:41.426Z,12.46
2022-11-17T09:05:08.747Z,12.46
2022-11-17T09:07:35.768Z,12.49
2022-11-17T09:10:07.686Z,12.54
2022-11-17T09:12:34.626Z,12.57
2022-11-17T09:15:01.398Z,12.55
2022-11-17T09:17:31.466Z,12.53
2022-11-17T09:19:58.288Z,12.52
2022-11-17T09:22:25.058Z,12.49
2022-11-17T09:24:52.031Z,12.47
2022-11-17T09:27:18.754Z,12.50
2022-11-17T09:29:45.557Z,12.50
2022-11-17T09:32:13.350Z,12.53
2022-11-17T09:34:40.123Z,12.49
2022-11-17T09:37:06.977Z,12.47
2022-11-17T09:39:33.738Z,12.46
2022-11-17T09:42:01.512Z,12.45
2022-11-17T09:44:31.297Z,12.46
2022-11-17T09:47:30.365Z,12.46
2022-11-17T09:50:15.993Z,12.49
2022-11-17T09:53:01.827Z,12.50
2022-11-17T09:55:47.367Z,12.65
2022-11-17T09:58:41.642Z,12.87
2022-11-17T10:01:13.834Z,12.93
2022-11-17T10:03:45.851Z,12.99
2022-11-17T10:06:31.886Z,13.04
2022-11-17T10:09:25.434Z,13.07
2022-11-17T10:11:56.825Z,13.21
2022-11-17T10:14:23.697Z,13.48
2022-11-17T10:16:58.242Z,13.67
2022-11-17T10:19:33.735Z,13.71
2022-11-17T10:22:03.703Z,13.80
2022-11-17T10:24:50.340Z,13.93
2022-11-17T10:27:17.080Z,13.96
2022-11-17T10:30:07.146Z,13.85
2022-11-17T10:32:48.205Z,13.75
2022-11-17T10:35:18.439Z,13.85
2022-11-17T10:37:58.265Z,13.80
2022-11-17T10:40:32.110Z,13.71
2022-11-17T10:43:01.846Z,13.63
2022-11-17T10:45:32.469Z,13.55
2022-11-17T10:48:28.966Z,13.43
2022-11-17T10:51:01.376Z,13.29
2022-11-17T10:53:45.140Z,13.31
2022-11-17T10:56:21.447Z,13.38
2022-11-17T10:59:10.034Z,13.56
2022-11-17T11:01:42.636Z,13.86
2022-11-17T11:04:34.363Z,14.12
2022-11-17T11:07:19.627Z,14.18
2022-11-17T11:10:03.053Z,14.42
2022-11-17T11:12:39.254Z,14.84
2022-11-17T11:15:13.848Z,14.88
2022-11-17T11:17:43.807Z,14.85
2022-11-17T11:20:33.859Z,14.68
2022-11-17T11:23:06.762Z,14.80
2022-11-17T11:25:38.987Z,14.93
2022-11-17T11:28:47.144Z,14.66
2022-11-17T11:31:29.180Z,14.96
2022-11-17T11:34:23.519Z,15.29
2022-11-17T11:37:12.717Z,15.48
2022-11-17T11:40:15.017Z,15.50
2022-11-17T11:42:55.616Z,15.47
2022-11-17T11:45:42.335Z,15.64
2022-11-17T11:48:27.083Z,15.53
2022-11-17T11:51:05.580Z,15.63
2022-11-17T11:53:48.278Z,15.52
2022-11-17T11:56:21.057Z,16.02
2022-11-17T11:58:58.813Z,16.20
2022-11-17T12:01:28.717Z,16.47
2022-11-17T12:04:14.690Z,16.12
2022-11-17T12:07:02.009Z,16.06
2022-11-17T12:09:48.716Z,16.27
2022-11-17T12:12:18.523Z,16.60
2022-11-17T12:15:20.947Z,16.60
2022-11-17T12:18:03.976Z,16.29
2022-11-17T12:20:30.822Z,15.76
2022-11-17T12:23:20.666Z,15.54
2022-11-17T12:25:54.192Z,15.60
2022-11-17T12:28:41.147Z,15.21
2022-11-17T12:31:24.154Z,14.84
2022-11-17T12:33:54.005Z,14.77
2022-11-17T12:36:30.484Z,15.45
2022-11-17T12:38:59.936Z,15.88
2022-11-17T12:41:48.788Z,16.23
2022-11-17T12:44:37.663Z,16.57
2022-11-17T12:47:27.258Z,16.56
2022-11-17T12:50:00.081Z,16.78
2022-11-17T12:52:39.096Z,16.95
2022-11-17T12:55:15.423Z,17.04
2022-11-17T12:57:45.597Z,16.71
2022-11-17T13:00:21.992Z,16.73
2022-11-17T13:03:17.766Z,16.44
2022-11-17T13:05:44.669Z,16.29
2022-11-17T13:08:14.414Z,16.25
2022-11-17T13:10:41.746Z,15.93
2022-11-17T13:13:10.425Z,15.79
2022-11-17T13:15:37.846Z,15.91
2022-11-17T13:18:10.619Z,16.00
2022-11-17T13:20:38.740Z,15.95
2022-11-17T13:23:14.126Z,16.01
2022-11-17T13:25:40.903Z,15.96
2022-11-17T13:28:26.413Z,15.91
2022-11-17T13:30:53.241Z,15.67
2022-11-17T13:33:22.796Z,15.46
2022-11-17T13:35:51.337Z,15.22
2022-11-17T13:38:19.746Z,14.97
2022-11-17T13:40:48.985Z,14.90
2022-11-17T13:43:25.273Z,14.75
2022-11-17T13:45:54.858Z,14.67
2022-11-17T13:48:42.318Z,14.53
2022-11-17T13:51:29.894Z,14.50
2022-11-17T13:53:56.632Z,14.45
2022-11-17T13:56:38.176Z,14.44
2022-11-17T13:59:22.013Z,14.38
2022-11-17T14:01:58.276Z,14.23
2022-11-17T14:04:25.283Z,14.05
2022-11-17T14:07:02.826Z,13.91
2022-11-17T14:09:31.952Z,13.86
2022-11-17T14:11:59.233Z,13.81
2022-11-17T14:14:40.316Z,13.75
2022-11-17T14:17:20.416Z,13.78
2022-11-17T14:19:47.914Z,13.69
2022-11-17T14:22:22.489Z,13.58
2022-11-17T14:24:54.460Z,13.56
2022-11-17T14:27:27.060Z,13.48
2022-11-17T14:29:53.849Z,13.54
2022-11-17T14:32:21.207Z,13.57
2022-11-17T14:34:47.994Z,13.56
2022-11-17T14:37:14.908Z,13.56
2022-11-17T14:39:42.794Z,13.53
2022-11-17T14:42:11.235Z,13.49
2022-11-17T14:44:38.057Z,13.43
2022-11-17T14:47:04.752Z,13.26
2022-11-17T14:49:31.475Z,13.14
2022-11-17T14:51:59.498Z,13.02
2022-11-17T14:54:26.906Z,13.07
2022-11-17T14:56:53.759Z,13.13
2022-11-17T14:59:20.468Z,13.14
2022-11-17T15:01:47.179Z,12.99
2022-11-17T15:04:48.442Z,12.85
2022-11-17T15:07:03.183Z,12.71
2022-11-17T15:09:30.125Z,12.60
2022-11-17T15:12:04.334Z,12.51
2022-11-17T15:14:31.175Z,12.47
2022-11-17T15:16:58.097Z,12.51
2022-11-17T15:19:28.512Z,12.46
2022-11-17T15:21:55.360Z,12.36
2022-11-17T15:24:22.154Z,12.28
2022-11-17T15:26:48.899Z,12.21
2022-11-17T15:29:15.990Z,12.14
2022-11-17T15:31:43.149Z,12.06
2022-11-17T15:34:14.341Z,12.00
2022-11-17T15:36:46.165Z,11.95
2022-11-17T15:39:13.987Z,11.98
2022-11-17T15:41:42.644Z,12.00
2022-11-17T15:44:09.727Z,12.04
2022-11-17T15:46:36.465Z,12.01
2022-11-17T15:49:03.485Z,11.95
2022-11-17T15:51:30.327Z,11.87
2022-11-17T15:54:00.332Z,11.81
2022-11-17T15:56:29.591Z,11.84
2022-11-17T15:59:03.311Z,11.85
2022-11-17T16:01:35.320Z,11.89
2022-11-17T16:04:05.126Z,11.95
2022-11-17T16:06:33.740Z,11.93
2022-11-17T16:09:00.825Z,11.87
2022-11-17T16:11:28.088Z,11.78
2022-11-17T16:13:56.093Z,11.75
2022-11-17T16:16:24.795Z,11.70
2022-11-17T16:18:52.813Z,11.68
2022-11-17T16:21:19.602Z,11.62
2022-11-17T16:23:48.676Z,11.59
2022-11-17T16:26:16.862Z,11.56
2022-11-17T16:28:44.108Z,11.54
2022-11-17T16:31:15.690Z,11.47
2022-11-17T16:33:50.290Z,11.44
2022-11-17T16:36:18.130Z,11.38
2022-11-17T16:38:59.959Z,11.36
2022-11-17T16:41:36.509Z,11.33
2022-11-17T16:44:07.539Z,11.38
2022-11-17T16:46:34.360Z,11.40
2022-11-17T16:49:07.292Z,11.32
2022-11-17T16:51:34.347Z,11.16
2022-11-17T16:54:03.973Z,11.11
2022-11-17T16:56:31.514Z,11.07
2022-11-17T16:58:58.915Z,11.06
2022-11-17T17:01:28.453Z,11.05
2022-11-17T17:03:57.132Z,11.00
2022-11-17T17:06:24.420Z,11.00
2022-11-17T17:08:59.882Z,10.89
2022-11-17T17:11:28.985Z,10.83
2022-11-17T17:13:58.968Z,10.80
2022-11-17T17:16:26.257Z,10.79
2022-11-17T17:18:59.645Z,10.83
2022-11-17T17:21:28.004Z,10.86
2022-11-17T17:23:55.413Z,10.86
2022-11-17T17:26:25.533Z,10.85
2022-11-17T17:28:55.183Z,10.87
2022-11-17T17:31:23.393Z,10.90
2022-11-17T17:33:51.536Z,10.94
2022-11-17T17:36:23.718Z,10.97
2022-11-17T17:38:55.761Z,11.01
2022-11-17T17:41:25.443Z,10.96
2022-11-17T17:43:58.293Z,10.94
2022-11-17T17:46:26.371Z,10.97
2022-11-17T17:48:53.604Z,10.97
2022-11-17T17:51:23.994Z,10.92
2022-11-17T17:53:52.025Z,10.92
2022-11-17T17:56:20.634Z,10.89
2022-11-17T17:58:50.627Z,10.91
2022-11-17T18:01:20.392Z,10.92
2022-11-17T18:03:48.735Z,10.92
2022-11-17T18:06:18.825Z,10.91
2022-11-17T18:08:45.736Z,10.85
2022-11-17T18:11:16.935Z,10.82
2022-11-17T18:13:45.471Z,10.81
2022-11-17T18:16:17.332Z,10.86
2022-11-17T18:18:45.652Z,10.95
2022-11-17T18:21:18.663Z,10.98
2022-11-17T18:23:46.157Z,10.97
2022-11-17T18:26:32.412Z,10.96
2022-11-17T18:29:00.576Z,10.94
2022-11-17T18:31:29.997Z,10.92
2022-11-17T18:33:59.232Z,10.92
2022-11-17T18:36:27.053Z,10.89
2022-11-17T18:38:54.406Z,10.90
2022-11-17T18:41:25.746Z,10.92
2022-11-17T18:43:52.709Z,10.98
2022-11-17T18:46:22.202Z,10.96
2022-11-17T18:48:51.794Z,10.94
2022-11-17T18:51:21.455Z,10.87
2022-11-17T18:53:53.914Z,10.85
2022-11-17T18:56:23.476Z,10.81
2022-11-17T18:58:50.930Z,10.82
2022-11-17T19:01:28.372Z,10.89
2022-11-17T19:03:58.745Z,10.94
2022-11-17T19:06:26.072Z,10.94
2022-11-17T19:08:53.739Z,10.90
2022-11-17T19:11:22.467Z,10.83
2022-11-17T19:13:52.586Z,10.76
2022-11-17T19:16:24.983Z,10.78
2022-11-17T19:18:55.987Z,10.72
2022-11-17T19:21:26.246Z,10.65
2022-11-17T19:23:55.037Z,10.60
2022-11-17T19:26:25.158Z,10.54
2022-11-17T19:28:56.149Z,10.40
2022-11-17T19:31:23.387Z,10.41
2022-11-17T19:33:50.779Z,10.41
2022-11-17T19:36:33.469Z,10.34
2022-11-17T19:39:01.889Z,10.30
2022-11-17T19:41:36.729Z,10.20
2022-11-17T19:44:05.535Z,10.16
2022-11-17T19:46:33.283Z,10.11
2022-11-17T19:49:00.113Z,10.10
2022-11-17T19:51:32.069Z,10.09
2022-11-17T19:54:02.116Z,10.09
2022-11-17T19:56:30.890Z,10.01
2022-11-17T19:58:57.912Z,9.99
2022-11-17T20:01:29.881Z,9.88
2022-11-17T20:03:58.913Z,9.88
2022-11-17T20:06:28.799Z,9.89
2022-11-17T20:08:57.438Z,9.95
2022-11-17T20:11:28.664Z,9.97
2022-11-17T20:13:56.186Z,9.90
2022-11-17T20:16:25.650Z,9.89
2022-11-17T20:18:54.996Z,9.92
2022-11-17T20:21:22.676Z,9.93
2022-11-17T20:23:50.612Z,9.91
2022-11-17T20:26:25.872Z,9.91
2022-11-17T20:28:53.001Z,9.87
2022-11-17T20:31:25.123Z,9.79
2022-11-17T20:33:56.547Z,9.73
2022-11-17T20:36:24.011Z,9.75
2022-11-17T20:38:52.887Z,9.72
2022-11-17T20:41:21.100Z,9.74
2022-11-17T20:43:49.394Z,9.71
2022-11-17T20:46:16.874Z,9.66
2022-11-17T20:48:44.374Z,9.62
2022-11-17T20:51:13.766Z,9.61
2022-11-17T20:53:41.123Z,9.56
2022-11-17T20:56:10.312Z,9.60
2022-11-17T20:58:37.639Z,9.62
2022-11-17T21:01:14.941Z,9.65
2022-11-17T21:03:42.620Z,9.61
2022-11-17T21:06:10.087Z,9.63
2022-11-17T21:08:39.127Z,9.64
2022-11-17T21:11:08.689Z,9.71
2022-11-17T21:13:36.573Z,9.76
2022-11-17T21:16:15.296Z,9.77
2022-11-17T21:18:51.862Z,9.73
2022-11-17T21:21:18.940Z,9.75
2022-11-17T21:23:47.805Z,9.80
2022-11-17T21:26:18.981Z,9.81
2022-11-17T21:28:46.930Z,9.79
2022-11-17T21:31:16.041Z,9.74
2022-11-17T21:33:44.126Z,9.69
2022-11-17T21:36:15.935Z,9.70
2022-11-17T21:38:43.790Z,9.65
2022-11-17T21:41:12.803Z,9.60
2022-11-17T21:43:42.112Z,9.66
2022-11-17T21:46:12.372Z,9.69
2022-11-17T21:48:39.526Z,9.74
2022-11-17T21:51:12.959Z,9.76
2022-11-17T21:53:39.789Z,9.78
2022-11-17T21:56:07.590Z,9.85
2022-11-17T21:58:34.774Z,9.86
2022-11-17T22:01:12.907Z,9.81
2022-11-17T22:03:41.119Z,9.82
2022-11-17T22:06:18.018Z,9.77
2022-11-17T22:08:46.426Z,9.72
2022-11-17T22:11:16.005Z,9.75
2022-11-17T22:13:42.880Z,9.77
2022-11-17T22:16:14.157Z,9.67
2022-11-17T22:18:41.645Z,9.67
2022-11-17T22:21:09.151Z,9.61
2022-11-17T22:23:35.965Z,9.57
2022-11-17T22:26:04.513Z,9.50
2022-11-17T22:28:31.494Z,9.47
2022-11-17T22:30:58.487Z,9.49
2022-11-17T22:33:25.354Z,9.56
2022-11-17T22:35:52.306Z,9.54
2022-11-17T22:38:19.397Z,9.54
2022-11-17T22:40:46.355Z,9.52
2022-11-17T22:43:15.574Z,9.51
2022-11-17T22:45:42.787Z,9.50
2022-11-17T22:48:12.545Z,9.46
2022-11-17T22:50:39.359Z,9.48
2022-11-17T22:53:06.418Z,9.51
2022-11-17T22:55:34.051Z,9.49
2022-11-17T22:58:00.933Z,9.49
2022-11-17T23:00:27.994Z,9.47
2022-11-17T23:02:54.939Z,9.43
2022-11-17T23:05:21.854Z,9.46
2022-11-17T23:07:48.679Z,9.48
2022-11-17T23:10:15.862Z,9.49
2022-11-17T23:12:42.723Z,9.47
2022-11-17T23:15:10.160Z,9.51
2022-11-17T23:18:28.340Z,9.57
2022-11-17T23:20:55.063Z,9.61
2022-11-17T23:23:21.929Z,9.60
2022-11-17T23:25:48.920Z,9.60
2022-11-17T23:28:15.938Z,9.59
2022-11-17T23:30:42.721Z,9.62
2022-11-17T23:33:09.614Z,9.61
2022-11-17T23:35:36.471Z,9.62
2022-11-17T23:38:03.240Z,9.65
2022-11-17T23:40:33.088Z,9.65
2022-11-17T23:43:00.056Z,9.62
2022-11-17T23:45:26.982Z,9.56
2022-11-17T23:47:54.284Z,9.48
2022-11-17T23:50:21.082Z,9.41
2022-11-17T23:52:47.918Z,9.34
2022-11-17T23:55:14.809Z,9.33
2022-11-17T23:57:41.779Z,9.30
